createdAt,value
2018-07-22T00:00:42.582Z,0.00
2018-07-22T00:01:42.574Z,0.00
2018-07-22T00:02:42.563Z,0.00
2018-07-22T00:03:42.564Z,0.00
2018-07-22T00:04:42.539Z,0.00
2018-07-22T00:05:42.532Z,0.00
2018-07-22T00:06:42.522Z,0.00
2018-07-22T00:07:42.530Z,0.00
2018-07-22T00:08:42.497Z,0.00
2018-07-22T00:09:42.484Z,0.00
2018-07-22T00:10:42.476Z,0.00
2018-07-22T00:11:42.463Z,0.00
2018-07-22T00:12:42.455Z,0.00
2018-07-22T00:13:42.454Z,0.00
2018-07-22T00:14:42.435Z,0.00
2018-07-22T00:15:42.440Z,0.00
2018-07-22T00:16:42.409Z,0.00
2018-07-22T00:17:42.401Z,0.00
2018-07-22T00:18:42.390Z,0.00
2018-07-22T00:19:42.379Z,0.00
2018-07-22T00:20:42.368Z,0.00
2018-07-22T00:21:42.368Z,0.00
2018-07-22T00:22:42.346Z,0.00
2018-07-22T00:23:42.332Z,0.00
2018-07-22T00:24:42.322Z,0.00
2018-07-22T00:25:42.333Z,0.00
2018-07-22T00:26:42.302Z,0.00
2018-07-22T00:27:42.292Z,0.00
2018-07-22T00:28:42.281Z,0.00
2018-07-22T00:29:42.273Z,0.00
2018-07-22T00:30:42.257Z,0.00
2018-07-22T00:31:42.258Z,0.00
2018-07-22T00:32:42.247Z,0.00
2018-07-22T00:33:42.235Z,0.00
2018-07-22T00:34:42.217Z,0.00
2018-07-22T00:35:42.205Z,0.00
2018-07-22T00:36:42.195Z,0.00
2018-07-22T00:37:42.181Z,0.00
2018-07-22T00:38:42.194Z,0.00
2018-07-22T00:39:42.163Z,0.00
2018-07-22T00:40:42.149Z,0.00
2018-07-22T00:41:42.142Z,0.00
2018-07-22T00:42:42.128Z,0.00
2018-07-22T00:43:42.115Z,0.00
2018-07-22T00:44:42.120Z,0.00
2018-07-22T00:45:42.099Z,0.00
2018-07-22T00:46:42.085Z,0.00
2018-07-22T00:47:42.076Z,0.00
2018-07-22T00:48:42.063Z,0.00
2018-07-22T00:49:42.094Z,0.00
2018-07-22T00:50:42.041Z,0.00
2018-07-22T00:51:42.031Z,0.00
2018-07-22T00:52:42.023Z,0.00
2018-07-22T00:53:42.007Z,0.00
2018-07-22T00:54:41.996Z,0.00
2018-07-22T00:55:42.000Z,0.00
2018-07-22T00:56:41.975Z,0.00
2018-07-22T00:57:41.967Z,0.00
2018-07-22T00:58:41.954Z,0.00
2018-07-22T00:59:41.946Z,0.00
2018-07-22T01:00:41.949Z,0.00
2018-07-22T01:01:41.936Z,0.00
2018-07-22T01:02:45.012Z,0.00
2018-07-22T01:03:41.899Z,0.00
2018-07-22T01:04:41.889Z,0.00
2018-07-22T01:05:41.905Z,0.00
2018-07-22T01:06:41.870Z,0.00
2018-07-22T01:07:41.858Z,0.00
2018-07-22T01:08:41.846Z,0.00
2018-07-22T01:09:41.837Z,0.00
2018-07-22T01:10:41.824Z,0.00
2018-07-22T01:11:41.853Z,0.00
2018-07-22T01:12:41.806Z,0.00
2018-07-22T01:13:41.791Z,0.00
2018-07-22T01:14:41.781Z,0.00
2018-07-22T01:15:41.772Z,0.00
2018-07-22T01:16:41.760Z,0.00
2018-07-22T01:17:41.767Z,0.00
2018-07-22T01:18:41.737Z,0.00
2018-07-22T01:19:41.744Z,0.00
2018-07-22T01:20:41.716Z,0.00
2018-07-22T01:21:41.727Z,0.00
2018-07-22T01:22:41.696Z,0.00
2018-07-22T01:23:41.686Z,0.00
2018-07-22T01:24:41.675Z,0.00
2018-07-22T01:25:41.663Z,0.00
2018-07-22T01:26:41.655Z,0.00
2018-07-22T01:27:41.655Z,0.00
2018-07-22T01:28:41.628Z,0.00
2018-07-22T01:29:41.621Z,0.00
2018-07-22T01:30:41.608Z,0.00
2018-07-22T01:31:41.599Z,0.00
2018-07-22T01:32:41.602Z,0.00
2018-07-22T01:33:41.578Z,0.00
2018-07-22T01:34:41.568Z,0.00
2018-07-22T01:35:41.553Z,0.00
2018-07-22T01:36:41.567Z,0.00
2018-07-22T01:37:41.537Z,0.00
2018-07-22T01:38:41.524Z,0.00
2018-07-22T01:39:41.514Z,0.00
2018-07-22T01:40:41.501Z,0.00
2018-07-22T01:41:41.489Z,0.00
2018-07-22T01:42:41.506Z,0.00
2018-07-22T01:43:41.467Z,0.00
2018-07-22T01:44:41.457Z,0.00
2018-07-22T01:45:41.448Z,0.00
2018-07-22T01:46:41.435Z,0.00
2018-07-22T01:47:41.427Z,0.00
2018-07-22T01:48:41.428Z,0.00
2018-07-22T01:49:41.408Z,0.00
2018-07-22T01:50:41.394Z,0.00
2018-07-22T01:51:41.385Z,0.00
2018-07-22T01:52:41.373Z,0.00
2018-07-22T01:53:41.372Z,0.00
2018-07-22T01:54:41.351Z,0.00
2018-07-22T01:55:41.338Z,0.00
2018-07-22T01:56:41.330Z,0.00
2018-07-22T01:57:41.340Z,0.00
2018-07-22T01:58:41.310Z,0.00
2018-07-22T01:59:41.295Z,0.00
2018-07-22T02:00:41.286Z,0.00
2018-07-22T02:01:41.303Z,0.00
2018-07-22T02:02:41.265Z,0.00
2018-07-22T02:03:41.263Z,0.00
2018-07-22T02:04:41.255Z,0.00
2018-07-22T02:05:41.233Z,0.00
2018-07-22T02:06:41.223Z,0.00
2018-07-22T02:07:41.212Z,0.00
2018-07-22T02:08:41.213Z,0.00
2018-07-22T02:09:41.187Z,0.00
2018-07-22T02:10:41.176Z,0.00
2018-07-22T02:11:41.167Z,0.00
2018-07-22T02:12:41.155Z,0.00
2018-07-22T02:13:41.160Z,0.00
2018-07-22T02:14:41.137Z,0.00
2018-07-22T02:15:41.125Z,0.00
2018-07-22T02:16:41.127Z,0.00
2018-07-22T02:17:41.103Z,0.00
2018-07-22T02:18:41.093Z,0.00
2018-07-22T02:19:41.082Z,0.00
2018-07-22T02:20:41.072Z,0.00
2018-07-22T02:21:41.072Z,0.00
2018-07-22T02:22:41.051Z,0.00
2018-07-22T02:23:41.035Z,0.00
2018-07-22T02:24:41.028Z,0.00
2018-07-22T02:25:41.028Z,0.00
2018-07-22T02:26:41.003Z,0.00
2018-07-22T02:27:40.992Z,0.00
2018-07-22T02:28:40.981Z,0.00
2018-07-22T02:29:40.972Z,0.00
2018-07-22T02:30:40.982Z,0.00
2018-07-22T02:31:40.949Z,0.00
2018-07-22T02:32:40.941Z,0.00
2018-07-22T02:33:40.933Z,0.00
2018-07-22T02:34:40.920Z,0.00
2018-07-22T02:35:40.906Z,0.00
2018-07-22T02:36:40.911Z,0.00
2018-07-22T02:37:40.900Z,0.00
2018-07-22T02:38:40.874Z,0.00
2018-07-22T02:39:40.863Z,0.00
2018-07-22T02:40:40.854Z,0.00
2018-07-22T02:41:40.841Z,0.00
2018-07-22T02:42:40.849Z,0.00
2018-07-22T02:43:40.833Z,0.00
2018-07-22T02:44:40.808Z,0.00
2018-07-22T02:45:40.796Z,0.00
2018-07-22T02:46:40.788Z,0.00
2018-07-22T02:47:40.792Z,0.00
2018-07-22T02:48:40.785Z,0.00
2018-07-22T02:49:40.766Z,0.00
2018-07-22T02:50:40.749Z,0.00
2018-07-22T02:51:40.734Z,0.00
2018-07-22T02:52:40.766Z,0.00
2018-07-22T02:53:40.715Z,4.00
2018-07-22T02:54:40.702Z,4.00
2018-07-22T02:55:40.690Z,4.00
2018-07-22T02:56:40.685Z,0.00
2018-07-22T02:57:40.670Z,4.00
2018-07-22T02:58:40.672Z,4.00
2018-07-22T02:59:40.663Z,4.00
2018-07-22T03:00:40.639Z,4.00
2018-07-22T03:01:40.627Z,4.00
2018-07-22T03:02:40.634Z,8.00
2018-07-22T03:03:40.605Z,8.00
2018-07-22T03:04:40.597Z,8.00
2018-07-22T03:05:40.587Z,8.00
2018-07-22T03:06:40.574Z,8.00
2018-07-22T03:07:40.564Z,12.00
2018-07-22T03:08:40.580Z,12.00
2018-07-22T03:09:40.541Z,16.00
2018-07-22T03:10:40.532Z,20.00
2018-07-22T03:11:40.519Z,24.00
2018-07-22T03:12:40.526Z,24.00
2018-07-22T03:13:40.498Z,24.00
2018-07-22T03:14:40.484Z,28.00
2018-07-22T03:15:40.476Z,32.00
2018-07-22T03:16:40.470Z,36.00
2018-07-22T03:17:40.461Z,40.00
2018-07-22T03:18:40.456Z,48.00
2018-07-22T03:19:40.436Z,48.00
2018-07-22T03:20:40.420Z,56.00
2018-07-22T03:21:40.425Z,64.00
2018-07-22T03:22:40.402Z,68.00
2018-07-22T03:23:40.406Z,76.00
2018-07-22T03:24:40.376Z,80.00
2018-07-22T03:25:40.368Z,92.00
2018-07-22T03:26:40.359Z,100.00
2018-07-22T03:27:40.347Z,104.00
2018-07-22T03:28:40.336Z,112.00
2018-07-22T03:29:40.337Z,120.00
2018-07-22T03:30:40.313Z,132.00
2018-07-22T03:31:40.304Z,140.00
2018-07-22T03:32:40.291Z,156.00
2018-07-22T03:33:40.279Z,172.00
2018-07-22T03:34:40.284Z,188.00
2018-07-22T03:35:40.261Z,208.00
2018-07-22T03:36:40.249Z,228.00
2018-07-22T03:37:40.248Z,248.00
2018-07-22T03:38:40.230Z,268.00
2018-07-22T03:39:40.234Z,288.00
2018-07-22T03:40:40.225Z,316.00
2018-07-22T03:41:40.194Z,340.00
2018-07-22T03:42:40.184Z,364.00
2018-07-22T03:43:40.175Z,388.00
2018-07-22T03:44:40.163Z,420.00
2018-07-22T03:45:40.155Z,448.00
2018-07-22T03:46:40.153Z,476.00
2018-07-22T03:47:40.148Z,508.00
2018-07-22T03:48:40.120Z,532.00
2018-07-22T03:49:40.112Z,560.00
2018-07-22T03:50:40.100Z,588.00
2018-07-22T03:51:40.105Z,616.00
2018-07-22T03:52:40.077Z,648.00
2018-07-22T03:53:40.067Z,680.00
2018-07-22T03:54:40.058Z,712.00
2018-07-22T03:55:40.047Z,748.00
2018-07-22T03:56:40.046Z,784.00
2018-07-22T03:57:40.027Z,820.00
2018-07-22T03:58:40.011Z,860.00
2018-07-22T03:59:40.006Z,892.00
2018-07-22T04:00:39.993Z,924.00
2018-07-22T04:01:39.997Z,956.00
2018-07-22T04:02:39.971Z,980.00
2018-07-22T04:03:39.960Z,1004.00
2018-07-22T04:04:39.946Z,1028.00
2018-07-22T04:05:39.936Z,1052.00
2018-07-22T04:06:39.967Z,1080.00
2018-07-22T04:07:39.915Z,1108.00
2018-07-22T04:08:39.907Z,1136.00
2018-07-22T04:09:39.896Z,1160.00
2018-07-22T04:10:39.882Z,1184.00
2018-07-22T04:11:39.873Z,1196.00
2018-07-22T04:12:39.894Z,1208.00
2018-07-22T04:13:39.852Z,1204.00
2018-07-22T04:14:39.841Z,1192.00
2018-07-22T04:15:39.828Z,1176.00
2018-07-22T04:16:39.821Z,1160.00
2018-07-22T04:17:39.809Z,1140.00
2018-07-22T04:18:39.813Z,1116.00
2018-07-22T04:19:39.783Z,1092.00
2018-07-22T04:20:39.775Z,1068.00
2018-07-22T04:21:39.764Z,1052.00
2018-07-22T04:22:39.773Z,1040.00
2018-07-22T04:23:39.742Z,1044.00
2018-07-22T04:24:39.733Z,1048.00
2018-07-22T04:25:39.723Z,1052.00
2018-07-22T04:26:39.710Z,1064.00
2018-07-22T04:27:39.699Z,1088.00
2018-07-22T04:28:39.706Z,1108.00
2018-07-22T04:29:39.680Z,1128.00
2018-07-22T04:30:39.669Z,1136.00
2018-07-22T04:31:39.670Z,1136.00
2018-07-22T04:32:39.647Z,1144.00
2018-07-22T04:33:39.655Z,1152.00
2018-07-22T04:34:39.630Z,1160.00
2018-07-22T04:35:39.614Z,1172.00
2018-07-22T04:36:39.602Z,1192.00
2018-07-22T04:37:39.593Z,1212.00
2018-07-22T04:38:39.583Z,1224.00
2018-07-22T04:39:39.611Z,1244.00
2018-07-22T04:40:39.561Z,1260.00
2018-07-22T04:41:39.553Z,1280.00
2018-07-22T04:42:39.540Z,1316.00
2018-07-22T04:43:39.525Z,1352.00
2018-07-22T04:44:39.518Z,1400.00
2018-07-22T04:45:39.518Z,1448.00
2018-07-22T04:46:39.496Z,1500.00
2018-07-22T04:47:39.485Z,1552.00
2018-07-22T04:48:39.477Z,1612.00
2018-07-22T04:49:39.469Z,1668.00
2018-07-22T04:50:39.465Z,1724.00
2018-07-22T04:51:39.440Z,1768.00
2018-07-22T04:52:39.432Z,1808.00
2018-07-22T04:53:39.496Z,1836.00
2018-07-22T04:54:39.408Z,1872.00
2018-07-22T04:55:39.413Z,1912.00
2018-07-22T04:56:39.386Z,1960.00
2018-07-22T04:57:39.377Z,2016.00
2018-07-22T04:58:39.367Z,2096.00
2018-07-22T04:59:39.354Z,2216.00
2018-07-22T05:00:39.357Z,2348.00
2018-07-22T05:01:39.333Z,2440.00
2018-07-22T05:02:39.322Z,2528.00
2018-07-22T05:03:39.311Z,2608.00
2018-07-22T05:04:39.314Z,2668.00
2018-07-22T05:05:39.289Z,2720.00
2018-07-22T05:06:39.281Z,2772.00
2018-07-22T05:07:39.269Z,2828.00
2018-07-22T05:08:39.260Z,2868.00
2018-07-22T05:09:39.260Z,2916.00
2018-07-22T05:10:39.240Z,2984.00
2018-07-22T05:11:39.225Z,3048.00
2018-07-22T05:12:39.215Z,3128.00
2018-07-22T05:13:39.218Z,3224.00
2018-07-22T05:14:39.196Z,3332.00
2018-07-22T05:15:39.201Z,3448.00
2018-07-22T05:16:39.172Z,3560.00
2018-07-22T05:17:39.164Z,3684.00
2018-07-22T05:18:39.152Z,3824.00
2018-07-22T05:19:39.141Z,3968.00
2018-07-22T05:20:39.144Z,4080.00
2018-07-22T05:21:39.121Z,4168.00
2018-07-22T05:22:39.110Z,4280.00
2018-07-22T05:23:39.096Z,4420.00
2018-07-22T05:24:39.089Z,4592.00
2018-07-22T05:25:39.092Z,4788.00
2018-07-22T05:26:39.080Z,5028.00
2018-07-22T05:27:39.056Z,5296.00
2018-07-22T05:28:39.060Z,5568.00
2018-07-22T05:29:39.033Z,5828.00
2018-07-22T05:30:39.024Z,6088.00
2018-07-22T05:31:39.011Z,6332.00
2018-07-22T05:32:39.017Z,6576.00
2018-07-22T05:33:38.991Z,6864.00
2018-07-22T05:34:38.982Z,7160.00
2018-07-22T05:35:38.971Z,7440.00
2018-07-22T05:36:38.972Z,7740.00
2018-07-22T05:37:38.947Z,8056.00
2018-07-22T05:38:38.954Z,8372.00
2018-07-22T05:39:38.925Z,8716.00
2018-07-22T05:40:38.915Z,9056.00
2018-07-22T05:41:38.904Z,9396.00
2018-07-22T05:42:38.895Z,9700.00
2018-07-22T05:43:38.903Z,9900.00
2018-07-22T05:44:38.871Z,10060.00
2018-07-22T05:45:38.865Z,10224.00
2018-07-22T05:46:38.851Z,10412.00
2018-07-22T05:47:38.841Z,10592.00
2018-07-22T05:48:38.831Z,10728.00
2018-07-22T05:49:38.833Z,10880.00
2018-07-22T05:50:38.805Z,11072.00
2018-07-22T05:51:38.797Z,11232.00
2018-07-22T05:52:38.784Z,11356.00
2018-07-22T05:53:38.796Z,11584.00
2018-07-22T05:54:38.765Z,11864.00
2018-07-22T05:55:38.752Z,12096.00
2018-07-22T05:56:38.740Z,12460.00
2018-07-22T05:57:38.733Z,12852.00
2018-07-22T05:58:38.722Z,13236.00
2018-07-22T05:59:38.723Z,13448.00
2018-07-22T06:00:38.702Z,13348.00
2018-07-22T06:01:38.690Z,13264.00
2018-07-22T06:02:38.676Z,13268.00
2018-07-22T06:03:38.667Z,13252.00
2018-07-22T06:04:38.670Z,13052.00
2018-07-22T06:05:38.644Z,13012.00
2018-07-22T06:06:38.633Z,13160.00
2018-07-22T06:07:38.623Z,13528.00
2018-07-22T06:08:38.611Z,13980.00
2018-07-22T06:09:38.602Z,14328.00
2018-07-22T06:10:38.602Z,14592.00
2018-07-22T06:11:38.583Z,14716.00
2018-07-22T06:12:38.567Z,14816.00
2018-07-22T06:13:38.559Z,14568.00
2018-07-22T06:14:38.588Z,14412.00
2018-07-22T06:15:38.536Z,14448.00
2018-07-22T06:16:38.569Z,14668.00
2018-07-22T06:17:38.564Z,14900.00
2018-07-22T06:18:38.503Z,15344.00
2018-07-22T06:19:38.495Z,15800.00
2018-07-22T06:20:38.498Z,16380.00
2018-07-22T06:21:38.470Z,16660.00
2018-07-22T06:22:38.460Z,16352.00
2018-07-22T06:23:38.449Z,15976.00
2018-07-22T06:24:38.441Z,15820.00
2018-07-22T06:25:38.440Z,16048.00
2018-07-22T06:26:38.418Z,16104.00
2018-07-22T06:27:38.405Z,15996.00
2018-07-22T06:28:38.410Z,15960.00
2018-07-22T06:29:38.386Z,16416.00
2018-07-22T06:30:38.374Z,16452.00
2018-07-22T06:31:38.385Z,16828.00
2018-07-22T06:32:38.351Z,16984.00
2018-07-22T06:33:38.341Z,17256.00
2018-07-22T06:34:38.329Z,17204.00
2018-07-22T06:35:38.321Z,17496.00
2018-07-22T06:36:38.308Z,17608.00
2018-07-22T06:37:38.313Z,17616.00
2018-07-22T06:38:38.305Z,18176.00
2018-07-22T06:39:38.277Z,18336.00
2018-07-22T06:40:38.264Z,18240.00
2018-07-22T06:41:38.253Z,18368.00
2018-07-22T06:42:38.245Z,18848.00
2018-07-22T06:43:38.234Z,19136.00
2018-07-22T06:44:38.264Z,19680.00
2018-07-22T06:45:38.213Z,20032.00
2018-07-22T06:46:38.292Z,20000.00
2018-07-22T06:47:38.191Z,19968.00
2018-07-22T06:48:38.177Z,20192.00
2018-07-22T06:49:38.166Z,20480.00
2018-07-22T06:50:38.170Z,20576.00
2018-07-22T06:51:38.147Z,20576.00
2018-07-22T06:52:38.141Z,20896.00
2018-07-22T06:53:38.192Z,20896.00
2018-07-22T06:54:38.128Z,20384.00
2018-07-22T06:55:38.104Z,20064.00
2018-07-22T06:56:38.107Z,20672.00
2018-07-22T06:57:38.079Z,21344.00
2018-07-22T06:58:38.071Z,21632.00
2018-07-22T06:59:38.056Z,21952.00
2018-07-22T07:00:38.061Z,24224.00
2018-07-22T07:01:38.057Z,27584.00
2018-07-22T07:02:38.025Z,27808.00
2018-07-22T07:03:38.015Z,29664.00
2018-07-22T07:04:38.004Z,30208.00
2018-07-22T07:05:37.996Z,27424.00
2018-07-22T07:06:37.982Z,29728.00
2018-07-22T07:07:37.985Z,30560.00
2018-07-22T07:08:38.001Z,30848.00
2018-07-22T07:09:37.957Z,30624.00
2018-07-22T07:10:37.943Z,31360.00
2018-07-22T07:11:37.929Z,32288.00
2018-07-22T07:12:37.937Z,32544.00
2018-07-22T07:13:37.910Z,32160.00
2018-07-22T07:14:37.905Z,32384.00
2018-07-22T07:15:37.889Z,31968.00
2018-07-22T07:16:37.877Z,31584.00
2018-07-22T07:17:37.865Z,34048.00
2018-07-22T07:18:37.869Z,34624.00
2018-07-22T07:19:37.845Z,36672.00
2018-07-22T07:20:37.832Z,38208.00
2018-07-22T07:21:37.820Z,38080.00
2018-07-22T07:22:37.849Z,35168.00
2018-07-22T07:23:37.799Z,37152.00
2018-07-22T07:24:37.789Z,38304.00
2018-07-22T07:25:37.778Z,31104.00
2018-07-22T07:26:37.815Z,35136.00
2018-07-22T07:27:37.757Z,37408.00
2018-07-22T07:28:37.760Z,38912.00
2018-07-22T07:29:37.735Z,39776.00
2018-07-22T07:30:37.729Z,40224.00
2018-07-22T07:31:37.716Z,34304.00
2018-07-22T07:32:37.709Z,32320.00
2018-07-22T07:33:37.745Z,32480.00
2018-07-22T07:34:37.683Z,42080.00
2018-07-22T07:35:37.678Z,33824.00
2018-07-22T07:36:37.665Z,30464.00
2018-07-22T07:37:37.654Z,45664.00
2018-07-22T07:38:37.646Z,35104.00
2018-07-22T07:39:37.646Z,47936.00
2018-07-22T07:40:37.620Z,48064.00
2018-07-22T07:41:37.617Z,44672.00
2018-07-22T07:42:37.601Z,34144.00
2018-07-22T07:43:37.590Z,35712.00
2018-07-22T07:44:37.591Z,37472.00
2018-07-22T07:45:37.583Z,35552.00
2018-07-22T07:46:37.564Z,39872.00
2018-07-22T07:47:37.548Z,42848.00
2018-07-22T07:48:37.538Z,46592.00
2018-07-22T07:49:37.525Z,46880.00
2018-07-22T07:50:37.514Z,45984.00
2018-07-22T07:51:37.530Z,41920.00
2018-07-22T07:52:37.492Z,33856.00
2018-07-22T07:53:37.484Z,52736.00
2018-07-22T07:54:37.475Z,53088.00
2018-07-22T07:55:37.460Z,46592.00
2018-07-22T07:56:37.454Z,34912.00
2018-07-22T07:57:37.457Z,41952.00
2018-07-22T07:58:37.433Z,48768.00
2018-07-22T07:59:37.421Z,50528.00
2018-07-22T08:00:37.408Z,49376.00
2018-07-22T08:01:37.422Z,47712.00
2018-07-22T08:02:37.388Z,48992.00
2018-07-22T08:03:37.379Z,52224.00
2018-07-22T08:04:37.368Z,51872.00
2018-07-22T08:05:37.414Z,47840.00
2018-07-22T08:06:37.355Z,45152.00
2018-07-22T08:07:37.350Z,47072.00
2018-07-22T08:08:37.329Z,55328.00
2018-07-22T08:09:37.312Z,53632.00
2018-07-22T08:10:37.302Z,54976.00
2018-07-22T08:11:37.349Z,54336.00
2018-07-22T08:12:37.281Z,55104.00
2018-07-22T08:13:37.270Z,55296.00
2018-07-22T08:14:37.262Z,55584.00
2018-07-22T08:15:37.252Z,55488.00
2018-07-22T08:16:37.245Z,58240.00
2018-07-22T08:17:37.245Z,59296.00
2018-07-22T08:18:37.231Z,58688.00
2018-07-22T08:19:37.209Z,58656.00
2018-07-22T08:20:37.199Z,61888.00
2018-07-22T08:21:37.267Z,63008.00
2018-07-22T08:22:37.178Z,64544.00
2018-07-22T08:23:37.183Z,67648.00
2018-07-22T08:24:37.157Z,68032.00
2018-07-22T08:25:37.144Z,66112.00
2018-07-22T08:26:37.138Z,56000.00
2018-07-22T08:27:37.137Z,44832.00
2018-07-22T08:28:37.133Z,42624.00
2018-07-22T08:29:37.103Z,52320.00
2018-07-22T08:30:37.141Z,47328.00
2018-07-22T08:31:37.083Z,48992.00
2018-07-22T08:32:37.088Z,47104.00
2018-07-22T08:33:37.060Z,57376.00
2018-07-22T08:34:37.068Z,59520.00
2018-07-22T08:35:37.043Z,59776.00
2018-07-22T08:36:37.034Z,49888.00
2018-07-22T08:37:37.022Z,46944.00
2018-07-22T08:38:37.012Z,46688.00
2018-07-22T08:39:37.024Z,51232.00
2018-07-22T08:40:36.988Z,64416.00
2018-07-22T08:41:37.071Z,68320.00
2018-07-22T08:42:36.968Z,69280.00
2018-07-22T08:43:36.959Z,68928.00
2018-07-22T08:44:36.946Z,69856.00
2018-07-22T08:45:36.950Z,69280.00
2018-07-22T08:46:36.928Z,67680.00
2018-07-22T08:47:36.929Z,63392.00
2018-07-22T08:48:36.910Z,66144.00
2018-07-22T08:49:36.897Z,68128.00
2018-07-22T08:50:36.897Z,68448.00
2018-07-22T08:51:36.875Z,66464.00
2018-07-22T08:52:36.867Z,68576.00
2018-07-22T08:53:36.856Z,69312.00
2018-07-22T08:54:36.848Z,73216.00
2018-07-22T08:55:36.850Z,73952.00
2018-07-22T08:56:36.837Z,73664.00
2018-07-22T08:57:36.812Z,74656.00
2018-07-22T08:58:36.802Z,75136.00
2018-07-22T08:59:36.792Z,75904.00
2018-07-22T09:00:36.796Z,77152.00
2018-07-22T09:01:36.773Z,77792.00
2018-07-22T09:02:36.764Z,76192.00
2018-07-22T09:03:36.751Z,76096.00
2018-07-22T09:04:36.755Z,74464.00
2018-07-22T09:05:36.735Z,72896.00
2018-07-22T09:06:36.721Z,74272.00
2018-07-22T09:07:36.727Z,76192.00
2018-07-22T09:08:36.702Z,76320.00
2018-07-22T09:09:36.691Z,75936.00
2018-07-22T09:10:36.686Z,77696.00
2018-07-22T09:11:36.705Z,77888.00
2018-07-22T09:12:36.701Z,77184.00
2018-07-22T09:13:36.648Z,75680.00
2018-07-22T09:14:36.643Z,77600.00
2018-07-22T09:15:36.632Z,78464.00
2018-07-22T09:16:36.625Z,79456.00
2018-07-22T09:17:36.615Z,79552.00
2018-07-22T09:18:36.620Z,79872.00
2018-07-22T09:19:36.594Z,79392.00
2018-07-22T09:20:36.582Z,79136.00
2018-07-22T09:21:36.572Z,72928.00
2018-07-22T09:22:36.561Z,81504.00
2018-07-22T09:23:36.552Z,82432.00
2018-07-22T09:24:36.959Z,82592.00
2018-07-22T09:25:36.529Z,82528.00
2018-07-22T09:26:36.521Z,81536.00
2018-07-22T09:27:36.512Z,82432.00
2018-07-22T09:28:36.499Z,82240.00
2018-07-22T09:29:36.491Z,84128.00
2018-07-22T09:30:36.504Z,84576.00
2018-07-22T09:31:36.470Z,86112.00
2018-07-22T09:32:36.459Z,87232.00
2018-07-22T09:33:36.449Z,87488.00
2018-07-22T09:34:36.439Z,86432.00
2018-07-22T09:35:36.428Z,85152.00
2018-07-22T09:36:36.490Z,86464.00
2018-07-22T09:37:36.411Z,86944.00
2018-07-22T09:38:36.399Z,87744.00
2018-07-22T09:39:36.401Z,87648.00
2018-07-22T09:40:36.380Z,89376.00
2018-07-22T09:41:36.384Z,89248.00
2018-07-22T09:42:36.358Z,89344.00
2018-07-22T09:43:36.351Z,89408.00
2018-07-22T09:44:36.342Z,89376.00
2018-07-22T09:45:36.329Z,87648.00
2018-07-22T09:46:36.336Z,90272.00
2018-07-22T09:47:36.309Z,89536.00
2018-07-22T09:48:36.305Z,91136.00
2018-07-22T09:49:36.289Z,90880.00
2018-07-22T09:50:36.283Z,90240.00
2018-07-22T09:51:36.292Z,91968.00
2018-07-22T09:52:36.261Z,93056.00
2018-07-22T09:53:36.290Z,92832.00
2018-07-22T09:54:36.242Z,94144.00
2018-07-22T09:55:36.232Z,94912.00
2018-07-22T09:56:36.219Z,94624.00
2018-07-22T09:57:36.251Z,94304.00
2018-07-22T09:58:36.262Z,95744.00
2018-07-22T09:59:36.189Z,90912.00
2018-07-22T10:00:36.179Z,83744.00
2018-07-22T10:01:36.174Z,90496.00
2018-07-22T10:02:36.162Z,93984.00
2018-07-22T10:03:36.164Z,91360.00
2018-07-22T10:04:36.186Z,88288.00
2018-07-22T10:05:36.136Z,89440.00
2018-07-22T10:06:36.122Z,80288.00
2018-07-22T10:07:36.113Z,89056.00
2018-07-22T10:08:36.120Z,92416.00
2018-07-22T10:09:36.097Z,95552.00
2018-07-22T10:10:36.089Z,98144.00
2018-07-22T10:11:36.074Z,95936.00
2018-07-22T10:12:36.084Z,95424.00
2018-07-22T10:13:36.049Z,97952.00
2018-07-22T10:14:36.103Z,96320.00
2018-07-22T10:15:36.035Z,97376.00
2018-07-22T10:16:36.024Z,98880.00
2018-07-22T10:17:36.066Z,97632.00
2018-07-22T10:18:36.025Z,99072.00
2018-07-22T10:19:35.995Z,100064.00
2018-07-22T10:20:36.003Z,100576.00
2018-07-22T10:21:35.977Z,100864.00
2018-07-22T10:22:35.963Z,97920.00
2018-07-22T10:23:35.955Z,99488.00
2018-07-22T10:24:35.945Z,99744.00
2018-07-22T10:25:35.942Z,98624.00
2018-07-22T10:26:35.940Z,98432.00
2018-07-22T10:27:35.913Z,97216.00
2018-07-22T10:28:35.947Z,95584.00
2018-07-22T10:29:35.911Z,98176.00
2018-07-22T10:30:35.886Z,99872.00
2018-07-22T10:31:35.878Z,101632.00
2018-07-22T10:32:35.864Z,99744.00
2018-07-22T10:33:35.857Z,99936.00
2018-07-22T10:34:35.864Z,99648.00
2018-07-22T10:35:35.837Z,99168.00
2018-07-22T10:36:35.825Z,97472.00
2018-07-22T10:37:35.820Z,100288.00
2018-07-22T10:38:35.805Z,105568.00
2018-07-22T10:39:35.796Z,104672.00
2018-07-22T10:40:35.803Z,104320.00
2018-07-22T10:41:35.788Z,101184.00
2018-07-22T10:42:35.767Z,97632.00
2018-07-22T10:43:35.772Z,98240.00
2018-07-22T10:44:35.747Z,99808.00
2018-07-22T10:45:35.737Z,97216.00
2018-07-22T10:46:35.863Z,100800.00
2018-07-22T10:47:35.721Z,102624.00
2018-07-22T10:48:35.711Z,103168.00
2018-07-22T10:49:35.715Z,104192.00
2018-07-22T10:50:35.691Z,104640.00
2018-07-22T10:51:35.736Z,99200.00
2018-07-22T10:52:35.686Z,97920.00
2018-07-22T10:53:35.658Z,96448.00
2018-07-22T10:54:35.651Z,95584.00
2018-07-22T10:55:35.644Z,64768.00
2018-07-22T10:56:35.632Z,98720.00
2018-07-22T10:57:35.653Z,105088.00
2018-07-22T10:58:35.613Z,107232.00
2018-07-22T10:59:35.602Z,105632.00
2018-07-22T11:00:35.595Z,105696.00
2018-07-22T11:01:35.585Z,107840.00
2018-07-22T11:02:35.573Z,100512.00
2018-07-22T11:03:35.579Z,101120.00
2018-07-22T11:04:35.555Z,104384.00
2018-07-22T11:05:35.548Z,105152.00
2018-07-22T11:06:35.538Z,99776.00
2018-07-22T11:07:35.529Z,101856.00
2018-07-22T11:08:35.543Z,103776.00
2018-07-22T11:09:35.509Z,105984.00
2018-07-22T11:10:35.500Z,105728.00
2018-07-22T11:11:35.488Z,103168.00
2018-07-22T11:12:35.479Z,105856.00
2018-07-22T11:13:35.470Z,103744.00
2018-07-22T11:14:35.495Z,104608.00
2018-07-22T11:15:35.452Z,107072.00
2018-07-22T11:16:35.445Z,106432.00
2018-07-22T11:17:35.431Z,108256.00
2018-07-22T11:18:35.427Z,107680.00
2018-07-22T11:19:35.415Z,107136.00
2018-07-22T11:20:35.420Z,110144.00
2018-07-22T11:21:35.400Z,111552.00
2018-07-22T11:22:35.389Z,107040.00
2018-07-22T11:23:35.379Z,106432.00
2018-07-22T11:24:35.383Z,104704.00
2018-07-22T11:25:35.358Z,104896.00
2018-07-22T11:26:35.348Z,108960.00
2018-07-22T11:27:35.339Z,110784.00
2018-07-22T11:28:35.366Z,106624.00
2018-07-22T11:29:35.319Z,105984.00
2018-07-22T11:30:35.309Z,106688.00
2018-07-22T11:31:35.302Z,107392.00
2018-07-22T11:32:35.320Z,110048.00
2018-07-22T11:33:35.283Z,109248.00
2018-07-22T11:34:35.269Z,106496.00
2018-07-22T11:35:35.263Z,107872.00
2018-07-22T11:36:35.249Z,111776.00
2018-07-22T11:37:35.243Z,111168.00
2018-07-22T11:38:35.244Z,57344.00
2018-07-22T11:39:35.223Z,32512.00
2018-07-22T11:40:35.213Z,32448.00
2018-07-22T11:41:35.206Z,61888.00
2018-07-22T11:42:35.194Z,116288.00
2018-07-22T11:43:35.206Z,113152.00
2018-07-22T11:44:35.176Z,111744.00
2018-07-22T11:45:35.167Z,115264.00
2018-07-22T11:46:35.160Z,112032.00
2018-07-22T11:47:35.153Z,99520.00
2018-07-22T11:48:35.139Z,110304.00
2018-07-22T11:49:35.148Z,113440.00
2018-07-22T11:50:35.172Z,112256.00
2018-07-22T11:51:35.112Z,104736.00
2018-07-22T11:52:35.103Z,105312.00
2018-07-22T11:53:35.098Z,108384.00
2018-07-22T11:54:35.084Z,105952.00
2018-07-22T11:55:35.088Z,108448.00
2018-07-22T11:56:35.064Z,109120.00
2018-07-22T11:57:35.055Z,106912.00
2018-07-22T11:58:35.045Z,108352.00
2018-07-22T11:59:35.037Z,109056.00
2018-07-22T12:00:35.041Z,108320.00
2018-07-22T12:01:35.081Z,109952.00
2018-07-22T12:02:35.011Z,110432.00
2018-07-22T12:03:35.003Z,110080.00
2018-07-22T12:04:34.990Z,111648.00
2018-07-22T12:05:35.000Z,110368.00
2018-07-22T12:06:34.975Z,68064.00
2018-07-22T12:07:34.987Z,76032.00
2018-07-22T12:08:34.954Z,92096.00
2018-07-22T12:09:34.943Z,99488.00
2018-07-22T12:10:34.949Z,77344.00